Главная страница
METAR-TAF:

METAR-TAF

Аэропорты :

Международный аэропорт имени Ибрагима Насира

Мале, Мальдивы

широта: 04-12N, долгота: 073-32E, высота над уровнем моря: 2 м

Текущие метеонаблюдения

Эта сводка был подготовлена 1 час и 35 минут назад, в 11:00 UTC
Ветер 8 Узел от восточно-северо-восточный
Температура 30°C
Влажность 75%
Давление 1009 hPa
Видимость: 9000 м
небольшая облачность на высоте 1800 фута
Рассеянная облачность на высоте 28000 фута

METAR: VRMM 191100Z 06008KT 9000 FEW018 BKN280 30/25 Q1009 NOSIG

Время: 17:35 (12:35 UTC)

Прогноз

Эта сводка был подготовлена 1 час и 35 минут назад, в 11:00 UTC
Прогноз действительный с 19-го 12 UTC до 20-го 18 UTC
Ветер 8 Узел от восточно-северо-восточный
Видимость: 9000 м
небольшая облачность на высоте 1900 фута
временами
С 19-го 12 UTC до 19-го 18 UTC
небольшая облачность на высоте 1900 фута, Кучево-дождевые.

TAF: VRMM 191100Z 1912/2018 06008KT 9000 FEW019 TEMPO 1912/1918 FEW019CB

Метеонаблюдения и прогнозы для более 4000 аэропортов (сводки METAR и TAF).

Имеющиеся станции представлены на карте желтыми и красными точками.

Чтобы увидеть название станции, наведите на нее мышь.

Затем щелкните, чтобы увидеть метеонаблюдения и метеопрогнозы.

Управление картой: чтобы увеличить масштаб, щелкните зеленые кнопки с черным крестиком; чтобы уменьшить масштаб, щелкните зеленую кнопку с тире; для просмотра соседних карт щелкайте зеленые стрелки.


METAR-TAF: